createdAt,value
2022-10-22T00:00:48.856Z,32.13
2022-10-22T00:03:15.969Z,34.30
2022-10-22T00:05:43.063Z,36.30
2022-10-22T00:08:09.985Z,34.70
2022-10-22T00:10:37.681Z,35.80
2022-10-22T00:13:04.638Z,32.77
2022-10-22T00:15:31.480Z,27.87
2022-10-22T00:17:58.710Z,32.80
2022-10-22T00:20:25.716Z,32.87
2022-10-22T00:25:19.372Z,30.53
2022-10-22T00:27:46.254Z,32.17
2022-10-22T00:30:13.297Z,33.77
2022-10-22T00:32:40.693Z,30.47
2022-10-22T00:35:08.623Z,29.50
2022-10-22T00:37:35.498Z,29.37
2022-10-22T00:40:02.653Z,36.60
2022-10-22T00:42:29.910Z,35.80
2022-10-22T00:45:20.883Z,30.50
2022-10-22T00:47:53.736Z,31.80
2022-10-22T00:50:26.627Z,25.43
2022-10-22T00:52:54.724Z,30.37
2022-10-22T00:55:23.814Z,29.43
2022-10-22T00:57:50.738Z,24.87
2022-10-22T01:00:18.131Z,30.13
2022-10-22T01:02:45.115Z,38.70
2022-10-22T01:05:12.410Z,35.30
2022-10-22T01:07:43.596Z,37.80
2022-10-22T01:10:21.207Z,35.47
2022-10-22T01:12:54.690Z,37.43
2022-10-22T01:15:28.567Z,34.20
2022-10-22T01:18:00.851Z,29.83
2022-10-22T01:21:00.464Z,39.10
2022-10-22T01:24:00.249Z,30.77
2022-10-22T01:26:37.720Z,35.73
2022-10-22T01:29:11.454Z,35.70
2022-10-22T01:31:43.747Z,32.40
2022-10-22T01:34:13.390Z,33.40
2022-10-22T01:36:40.553Z,33.40
2022-10-22T01:39:08.340Z,30.93
2022-10-22T01:41:35.478Z,31.00
2022-10-22T01:44:02.401Z,32.57
2022-10-22T01:46:30.013Z,31.13
2022-10-22T01:49:17.085Z,66.90
2022-10-22T01:51:56.618Z,31.40
2022-10-22T01:54:31.382Z,33.43
2022-10-22T01:57:08.729Z,33.10
2022-10-22T01:59:48.308Z,30.17
2022-10-22T02:02:25.941Z,28.23
2022-10-22T02:04:58.266Z,31.13
2022-10-22T02:07:30.632Z,37.17
2022-10-22T02:09:59.290Z,31.90
2022-10-22T02:12:27.414Z,32.70
2022-10-22T02:14:56.698Z,31.47
2022-10-22T02:17:27.351Z,34.57
2022-10-22T02:19:56.994Z,33.40
2022-10-22T02:22:25.754Z,34.50
2022-10-22T02:24:52.665Z,33.67
2022-10-22T02:27:26.867Z,32.17
2022-10-22T02:30:01.424Z,30.73
2022-10-22T02:32:34.042Z,33.80
2022-10-22T02:35:01.241Z,31.27
2022-10-22T02:37:28.895Z,32.27
2022-10-22T02:39:55.970Z,34.60
2022-10-22T02:42:25.212Z,30.87
2022-10-22T02:44:53.701Z,31.17
2022-10-22T02:47:20.880Z,31.73
2022-10-22T02:49:48.203Z,26.10
2022-10-22T02:52:15.163Z,27.00
2022-10-22T02:54:42.057Z,29.50
2022-10-22T02:57:10.418Z,27.90
2022-10-22T02:59:37.281Z,31.87
2022-10-22T03:02:04.228Z,28.00
2022-10-22T03:04:31.180Z,53.23
2022-10-22T03:06:58.470Z,27.87
2022-10-22T03:09:27.566Z,26.50
2022-10-22T03:11:54.461Z,26.77
2022-10-22T03:14:22.045Z,27.87
2022-10-22T03:16:48.890Z,33.60
2022-10-22T03:19:15.725Z,31.53
2022-10-22T03:21:45.467Z,32.93
2022-10-22T03:24:17.808Z,28.53
2022-10-22T03:26:46.674Z,33.30
2022-10-22T03:29:15.160Z,35.17
2022-10-22T03:31:42.399Z,31.03
2022-10-22T03:34:11.198Z,32.70
2022-10-22T03:36:38.270Z,33.60
2022-10-22T03:39:05.637Z,35.53
2022-10-22T03:41:33.539Z,32.97
2022-10-22T03:44:00.622Z,33.73
2022-10-22T03:46:27.607Z,30.57
2022-10-22T03:48:54.507Z,24.63
2022-10-22T03:51:21.343Z,44.53
2022-10-22T03:53:48.305Z,25.80
2022-10-22T03:56:15.294Z,29.60
2022-10-22T03:58:42.534Z,31.10
2022-10-22T04:01:11.414Z,32.07
2022-10-22T04:03:38.547Z,34.93
2022-10-22T04:06:07.287Z,32.23
2022-10-22T04:08:34.482Z,28.97
2022-10-22T04:11:03.626Z,29.33
2022-10-22T04:13:30.496Z,27.73
2022-10-22T04:16:06.859Z,30.67
2022-10-22T04:18:33.708Z,27.37
2022-10-22T04:21:00.547Z,30.37
2022-10-22T04:23:27.435Z,26.00
2022-10-22T04:25:57.805Z,26.53
2022-10-22T04:28:24.736Z,25.13
2022-10-22T04:30:51.805Z,25.53
2022-10-22T04:33:19.604Z,21.63
2022-10-22T04:35:46.530Z,20.60
2022-10-22T04:38:13.671Z,41.33
2022-10-22T04:40:40.485Z,26.43
2022-10-22T04:43:07.362Z,29.53
2022-10-22T04:45:34.391Z,42.93
2022-10-22T04:48:01.226Z,35.47
2022-10-22T04:50:29.243Z,36.90
2022-10-22T04:52:56.055Z,36.30
2022-10-22T04:55:22.950Z,33.93
2022-10-22T04:57:49.807Z,31.33
2022-10-22T05:00:16.712Z,30.93
2022-10-22T05:02:44.065Z,32.70
2022-10-22T05:05:11.266Z,33.40
2022-10-22T05:07:39.012Z,31.33
2022-10-22T05:10:08.096Z,32.13
2022-10-22T05:12:35.204Z,37.57
2022-10-22T05:15:02.217Z,37.00
2022-10-22T05:17:29.016Z,34.40
2022-10-22T05:19:55.827Z,62.97
2022-10-22T05:22:22.697Z,28.30
2022-10-22T05:24:50.223Z,31.83
2022-10-22T05:29:43.924Z,29.73
2022-10-22T05:32:10.758Z,31.03
2022-10-22T05:34:37.670Z,30.87
2022-10-22T05:37:04.767Z,33.90
2022-10-22T05:39:31.627Z,101.90
2022-10-22T05:41:58.829Z,32.63
2022-10-22T05:44:25.662Z,28.13
2022-10-22T05:46:52.507Z,29.23
2022-10-22T05:49:19.353Z,29.37
2022-10-22T05:51:46.401Z,30.27
2022-10-22T05:54:18.036Z,28.60
2022-10-22T05:56:44.903Z,31.53
2022-10-22T05:59:12.343Z,31.83
2022-10-22T06:01:40.204Z,24.60
2022-10-22T06:04:10.547Z,26.83
2022-10-22T06:06:39.594Z,30.13
2022-10-22T06:09:13.142Z,27.17
2022-10-22T06:11:40.034Z,33.07
2022-10-22T06:14:06.984Z,33.40
2022-10-22T06:16:34.503Z,34.60
2022-10-22T06:19:02.268Z,50.40
2022-10-22T06:21:30.279Z,40.97
2022-10-22T06:23:57.432Z,38.63
2022-10-22T06:26:24.563Z,38.60
2022-10-22T06:28:53.747Z,31.93
2022-10-22T06:31:20.624Z,27.90
2022-10-22T06:33:47.831Z,34.33
2022-10-22T06:36:15.848Z,30.90
2022-10-22T06:38:43.426Z,26.57
2022-10-22T06:41:11.952Z,34.50
2022-10-22T06:43:38.838Z,35.67
2022-10-22T06:46:09.056Z,39.27
2022-10-22T06:48:37.211Z,45.23
2022-10-22T06:51:06.657Z,37.90
2022-10-22T06:53:33.591Z,43.30
2022-10-22T06:56:04.800Z,34.37
2022-10-22T06:58:31.864Z,36.00
2022-10-22T07:01:02.640Z,40.83
2022-10-22T07:03:29.546Z,47.07
2022-10-22T07:05:59.480Z,41.67
2022-10-22T07:08:26.763Z,42.33
2022-10-22T07:10:58.053Z,45.37
2022-10-22T07:13:24.957Z,44.77
2022-10-22T07:15:55.396Z,44.83
2022-10-22T07:18:22.553Z,42.00
2022-10-22T07:20:49.739Z,39.80
2022-10-22T07:23:17.286Z,37.10
2022-10-22T07:25:44.751Z,39.53
2022-10-22T07:28:12.037Z,34.37
2022-10-22T07:30:39.368Z,34.57
2022-10-22T07:33:06.778Z,32.10
2022-10-22T07:35:33.893Z,31.13
2022-10-22T07:38:00.940Z,35.63
2022-10-22T07:40:27.800Z,33.80
2022-10-22T07:42:55.877Z,31.30
2022-10-22T07:45:23.212Z,29.97
2022-10-22T07:47:50.095Z,31.00
2022-10-22T07:50:18.339Z,22.60
2022-10-22T07:52:46.310Z,20.60
2022-10-22T07:55:13.237Z,19.53
2022-10-22T07:57:40.152Z,18.50
2022-10-22T08:00:09.559Z,16.10
2022-10-22T08:02:36.463Z,16.93
2022-10-22T08:05:03.347Z,16.40
2022-10-22T08:07:30.149Z,16.83
2022-10-22T08:09:57.037Z,16.80
2022-10-22T08:12:23.874Z,18.60
2022-10-22T08:14:50.752Z,17.60
2022-10-22T08:17:18.101Z,17.17
2022-10-22T08:19:44.950Z,18.03
2022-10-22T08:22:11.929Z,16.10
2022-10-22T08:24:38.994Z,16.83
2022-10-22T08:27:05.864Z,17.30
2022-10-22T08:29:32.893Z,17.27
2022-10-22T08:32:02.049Z,15.97
2022-10-22T08:34:29.788Z,17.30
2022-10-22T08:36:56.770Z,15.10
2022-10-22T08:39:23.672Z,14.70
2022-10-22T08:41:55.946Z,11.57
2022-10-22T08:44:39.586Z,15.20
2022-10-22T08:47:28.595Z,17.17
2022-10-22T08:49:57.623Z,14.03
2022-10-22T08:52:24.633Z,14.70
2022-10-22T08:54:53.534Z,15.30
2022-10-22T08:57:36.954Z,16.90
2022-10-22T09:00:06.494Z,13.87
2022-10-22T09:02:42.095Z,15.27
2022-10-22T09:05:22.205Z,13.60
2022-10-22T09:07:49.783Z,13.40
2022-10-22T09:10:17.341Z,14.13
2022-10-22T09:12:44.932Z,14.57
2022-10-22T09:15:14.708Z,14.30
2022-10-22T09:17:53.737Z,20.57
2022-10-22T09:20:27.986Z,15.90
2022-10-22T09:23:01.071Z,16.83
2022-10-22T09:25:30.450Z,14.70
2022-10-22T09:27:57.968Z,17.43
2022-10-22T09:30:27.326Z,16.20
2022-10-22T09:32:59.871Z,16.13
2022-10-22T09:35:27.798Z,11.80
2022-10-22T09:37:56.676Z,19.70
2022-10-22T09:40:24.236Z,19.10
2022-10-22T09:42:51.802Z,12.13
2022-10-22T09:45:22.218Z,16.63
2022-10-22T09:48:01.634Z,12.27
2022-10-22T09:50:40.865Z,12.83
2022-10-22T09:53:13.423Z,12.70
2022-10-22T09:55:41.169Z,15.87
2022-10-22T09:58:12.032Z,11.67
2022-10-22T10:00:39.038Z,11.13
2022-10-22T10:03:09.169Z,13.30
2022-10-22T10:05:36.945Z,11.80
2022-10-22T10:08:13.574Z,9.63
2022-10-22T10:10:47.025Z,10.73
2022-10-22T10:13:23.126Z,9.97
2022-10-22T10:15:55.839Z,14.23
2022-10-22T10:18:41.524Z,11.57
2022-10-22T10:23:48.212Z,11.37
2022-10-22T10:26:21.883Z,15.17
2022-10-22T10:28:59.629Z,14.23
2022-10-22T10:31:38.249Z,14.07
2022-10-22T10:34:12.927Z,11.97
2022-10-22T10:36:52.307Z,14.03
2022-10-22T10:39:25.360Z,12.27
2022-10-22T10:41:58.672Z,12.43
2022-10-22T10:44:52.321Z,15.23
2022-10-22T10:47:39.071Z,11.17
2022-10-22T10:50:20.585Z,11.83
2022-10-22T10:52:58.962Z,18.10
2022-10-22T10:55:32.072Z,13.20
2022-10-22T10:58:13.328Z,11.67
2022-10-22T11:00:47.404Z,12.50
2022-10-22T11:03:48.879Z,12.73
2022-10-22T11:06:20.486Z,11.00
2022-10-22T11:08:57.511Z,11.60
2022-10-22T11:11:32.624Z,14.30
2022-10-22T11:14:06.060Z,9.73
2022-10-22T11:16:37.096Z,14.73
2022-10-22T11:19:11.278Z,14.03
2022-10-22T11:21:44.300Z,14.80
2022-10-22T11:24:20.553Z,12.20
2022-10-22T11:26:52.611Z,12.50
2022-10-22T11:29:24.654Z,10.93
2022-10-22T11:31:55.341Z,17.13
2022-10-22T11:34:39.398Z,14.83
2022-10-22T11:37:06.910Z,13.03
2022-10-22T12:10:20.276Z,12.97
2022-10-22T12:12:55.382Z,11.40
2022-10-22T12:15:26.316Z,10.37
2022-10-22T12:17:59.227Z,11.57
2022-10-22T12:37:43.557Z,10.15
2022-10-22T12:40:18.832Z,10.93
2022-10-22T12:42:51.044Z,8.17
2022-10-22T12:45:18.601Z,9.00
2022-10-22T12:47:49.108Z,8.93
2022-10-22T12:50:21.198Z,7.37
2022-10-22T12:52:49.166Z,8.30
2022-10-22T12:55:17.325Z,10.07
2022-10-22T12:57:47.008Z,8.93
2022-10-22T13:00:23.120Z,10.67
2022-10-22T13:02:49.998Z,10.63
2022-10-22T13:05:22.847Z,8.50
2022-10-22T13:07:52.205Z,7.37
2022-10-22T13:10:23.805Z,7.67
2022-10-22T13:12:54.049Z,8.07
2022-10-22T13:15:35.734Z,27.23
2022-10-22T13:18:05.257Z,7.13
2022-10-22T13:20:32.680Z,11.13
2022-10-22T13:23:00.527Z,7.87
2022-10-22T13:25:29.281Z,5.57
2022-10-22T13:27:58.093Z,4.87
2022-10-22T13:30:27.212Z,5.63
2022-10-22T13:32:55.881Z,5.77
2022-10-22T13:35:27.390Z,4.83
2022-10-22T13:37:54.298Z,7.43
2022-10-22T13:40:21.210Z,5.40
2022-10-22T13:42:47.893Z,6.30
2022-10-22T13:45:14.892Z,5.87
2022-10-22T13:47:42.876Z,6.10
2022-10-22T13:50:14.895Z,9.10
2022-10-22T13:52:44.409Z,5.13
2022-10-22T13:55:18.225Z,5.70
2022-10-22T13:57:45.219Z,5.03
2022-10-22T14:00:14.720Z,6.60
2022-10-22T14:02:42.028Z,5.77
2022-10-22T14:05:10.630Z,6.40
2022-10-22T14:07:38.217Z,5.63
2022-10-22T14:10:14.399Z,7.43
2022-10-22T14:12:41.274Z,6.03
2022-10-22T14:15:09.836Z,7.10
2022-10-22T14:17:36.739Z,5.03
2022-10-22T14:20:03.874Z,5.70
2022-10-22T14:22:31.128Z,14.80
2022-10-22T14:24:58.146Z,16.60
2022-10-22T14:27:24.964Z,9.43
2022-10-22T14:29:53.217Z,7.80
2022-10-22T14:32:22.994Z,5.27
2022-10-22T14:34:49.869Z,11.70
2022-10-22T14:37:18.270Z,6.67
2022-10-22T14:39:50.966Z,9.27
2022-10-22T14:42:18.839Z,6.93
2022-10-22T14:44:45.740Z,5.63
2022-10-22T14:47:12.611Z,6.90
